Amity, Maine
Current Conditions -  °F | °C
As of 11:25 AM on Wednesday 28 Jan 2015 (Local Time) from KHUL Reporting Station
Light Snow Light Snow  
Wind Chill: -2°   Ceiling: 2600
Heat Index: 14°   Visibility: 1.5mi
Dew Point:   Wind: 16mph
Humidity: 74%   Direction: 350°N
Pressure: 29.83"   Gusts: NA
Location:  45.8952°N, 67.8479°W
Report Text: KHUL 281625Z AUTO 35014KT 1 1/2SM -SN FEW019 BKN026 OVC037 M10/M14 A2983 RMK AO2 P0000 T11001139
Loading
Personal Weather Stations






























Interactive Weather Map New forecast layout! Learn more

10-Day Weather Forecast

Advertisements
Track Severe Weather on mobile